Terminal Aerodrome Forecast
Issued by NWS Sterling, VA

Current Version | Previous Version | Text Only | Print | Product List | Glossary On
Versions: 1 2 3 4 5 6 7 8 9 10 11 12 13
936
FTUS41 KLWX 181120
TAFMRB
TAF
KMRB 181120Z 1812/1912 21004KT P6SM SKC
     FM181700 23008KT P6SM SKC
     FM190100 26005KT P6SM OVC110
     FM190600 27005KT P6SM BKN070
     FM191100 28006KT P6SM SCT130=

USA.gov is the U.S. government's official web portal to all federal, state and local government web resources and services.